createdAt,value
2019-04-23T00:01:49.817Z,101211.67
2019-04-23T00:04:24.117Z,101209.48
2019-04-23T00:07:10.713Z,101203.77
2019-04-23T00:09:35.509Z,101203.39
2019-04-23T00:12:11.985Z,101200.70
2019-04-23T00:14:47.129Z,101199.20
2019-04-23T00:17:14.992Z,101200.67
2019-04-23T00:19:47.260Z,101205.44
2019-04-23T00:22:51.908Z,101196.59
2019-04-23T00:25:45.574Z,101199.13
2019-04-23T00:30:48.130Z,101188.56
2019-04-23T00:33:23.920Z,101188.95
2019-04-23T00:35:44.032Z,101184.71
2019-04-23T00:38:27.939Z,101180.38
2019-04-23T00:43:30.627Z,101179.00
2019-04-23T00:45:59.391Z,101170.04
2019-04-23T00:51:02.337Z,101171.85
2019-04-23T00:53:38.636Z,101167.91
2019-04-23T00:56:32.457Z,101167.27
2019-04-23T01:01:31.948Z,101164.04
2019-04-23T01:04:02.570Z,101163.78
2019-04-23T01:06:29.061Z,101165.94
2019-04-23T01:09:03.831Z,101165.48
2019-04-23T01:11:39.314Z,101165.73
2019-04-23T01:14:11.349Z,101164.86
2019-04-23T01:16:42.488Z,101164.98
2019-04-23T01:21:49.615Z,101159.64
2019-04-23T01:25:07.243Z,101166.08
2019-04-23T01:30:38.746Z,101154.80
2019-04-23T01:33:11.006Z,101147.36
2019-04-23T01:35:41.316Z,101145.13
2019-04-23T01:38:21.547Z,101141.09
2019-04-23T01:43:23.212Z,101139.32
2019-04-23T01:45:54.537Z,101131.36
2019-04-23T01:48:36.315Z,101139.27
2019-04-23T01:51:19.027Z,101129.05
2019-04-23T01:53:40.495Z,101128.72
2019-04-23T01:56:11.133Z,101121.61
2019-04-23T01:58:45.105Z,101117.31
2019-04-23T02:01:19.178Z,101112.02
2019-04-23T02:03:57.999Z,101109.53
2019-04-23T02:06:30.005Z,101107.84
2019-04-23T02:08:58.847Z,101106.12
2019-04-23T02:11:34.172Z,101104.52
2019-04-23T02:14:08.909Z,101104.05
2019-04-23T02:16:56.282Z,101098.00
2019-04-23T02:19:21.855Z,101096.95
2019-04-23T02:22:13.263Z,101104.64
2019-04-23T02:24:39.606Z,101093.66
2019-04-23T02:27:05.254Z,101095.20
2019-04-23T02:29:51.439Z,101092.39
2019-04-23T02:32:16.776Z,101095.88
2019-04-23T02:35:01.633Z,101092.92
2019-04-23T02:37:34.720Z,101089.01
2019-04-23T02:40:16.014Z,101087.95
2019-04-23T02:45:07.526Z,101091.64
2019-04-23T02:47:44.295Z,101083.95
2019-04-23T02:50:33.598Z,101080.62
2019-04-23T02:52:49.644Z,101081.02
2019-04-23T02:55:27.174Z,101076.73
2019-04-23T02:57:54.293Z,101073.74
2019-04-23T03:00:27.666Z,101068.75
2019-04-23T03:03:06.347Z,101071.37
2019-04-23T03:05:36.096Z,101066.78
2019-04-23T03:16:21.825Z,101062.86
2019-04-23T03:22:00.128Z,101056.05
2019-04-23T03:24:44.127Z,101054.06
2019-04-23T03:29:57.940Z,101056.48
2019-04-23T03:40:03.773Z,101045.57
2019-04-23T03:42:38.719Z,101042.88
2019-04-23T03:50:15.469Z,101037.27
2019-04-23T03:52:44.386Z,101035.23
2019-04-23T03:55:28.132Z,101035.62
2019-04-23T03:57:52.640Z,101032.09
2019-04-23T04:00:35.235Z,101036.69
2019-04-23T04:03:12.251Z,101035.53
2019-04-23T04:08:13.943Z,101038.04
2019-04-23T04:11:02.504Z,101030.83
2019-04-23T04:13:22.438Z,101030.56
2019-04-23T04:15:55.344Z,101033.81
2019-04-23T04:21:08.669Z,101030.94
2019-04-23T04:23:33.054Z,101033.74
2019-04-23T04:26:07.092Z,101034.59
2019-04-23T04:31:16.351Z,101044.48
2019-04-23T04:34:01.157Z,101037.54
2019-04-23T04:38:54.495Z,101043.86
2019-04-23T04:41:34.499Z,101052.48
2019-04-23T04:46:45.129Z,101042.81
2019-04-23T04:54:21.154Z,101041.98
2019-04-23T04:59:56.275Z,101044.86
2019-04-23T05:02:16.195Z,101043.69
2019-04-23T05:07:26.030Z,101045.98
2019-04-23T05:12:22.933Z,101038.67
2019-04-23T05:14:56.940Z,101037.89
2019-04-23T05:17:57.268Z,101031.81
2019-04-23T05:20:37.345Z,101021.91
2019-04-23T05:23:00.165Z,101018.92
2019-04-23T05:25:21.999Z,101017.17
2019-04-23T05:28:08.278Z,101016.09
2019-04-23T05:36:04.982Z,101032.83
2019-04-23T05:38:37.161Z,101026.66
2019-04-23T05:43:19.233Z,101028.27
2019-04-23T05:45:59.300Z,101024.40
2019-04-23T05:48:23.519Z,101023.05
2019-04-23T05:51:04.546Z,101020.64
2019-04-23T05:56:09.086Z,101015.67
2019-04-23T05:58:46.858Z,101020.42
2019-04-23T06:04:26.049Z,101011.23
2019-04-23T06:07:15.279Z,101009.55
2019-04-23T06:11:59.745Z,101005.86
2019-04-23T06:14:40.285Z,101012.37
2019-04-23T06:17:03.706Z,100996.27
2019-04-23T06:19:46.029Z,100998.62
2019-04-23T06:22:27.408Z,101001.46
2019-04-23T06:24:32.983Z,100999.17
2019-04-23T06:27:13.589Z,101004.48
2019-04-23T06:29:57.716Z,100995.58
2019-04-23T06:32:31.420Z,100992.16
2019-04-23T06:37:25.790Z,100996.79
2019-04-23T06:42:32.518Z,100987.80
2019-04-23T06:45:26.412Z,100985.36
2019-04-23T06:47:37.583Z,100992.61
2019-04-23T06:50:14.789Z,100978.91
2019-04-23T06:52:48.524Z,100987.55
2019-04-23T06:55:25.421Z,100984.00
2019-04-23T06:57:58.602Z,100985.86
2019-04-23T07:00:34.214Z,100985.28
2019-04-23T07:03:07.611Z,100983.08
2019-04-23T07:06:03.685Z,100994.61
2019-04-23T07:08:32.498Z,100984.20
2019-04-23T07:11:11.100Z,100968.34
2019-04-23T07:13:47.168Z,100972.05
2019-04-23T07:16:09.628Z,100978.66
2019-04-23T07:18:41.125Z,100975.84
2019-04-23T07:21:20.202Z,100971.52
2019-04-23T07:31:50.058Z,100968.22
2019-04-23T07:39:21.968Z,100962.86
2019-04-23T07:42:24.722Z,100956.81
2019-04-23T07:50:49.424Z,100944.56
2019-04-23T07:56:09.520Z,100944.59
2019-04-23T07:58:29.011Z,100929.01
2019-04-23T08:01:01.020Z,100934.52
2019-04-23T08:03:39.320Z,100935.72
2019-04-23T08:06:05.857Z,100934.75
2019-04-23T08:08:45.501Z,100927.40
2019-04-23T08:14:08.544Z,100918.17
2019-04-23T08:16:33.622Z,100919.48
2019-04-23T08:18:59.031Z,100907.83
2019-04-23T08:21:31.820Z,100907.83
2019-04-23T08:24:50.557Z,100907.05
2019-04-23T08:27:22.426Z,100904.19
2019-04-23T08:29:55.462Z,100900.16
2019-04-23T08:32:21.326Z,100905.37
2019-04-23T08:37:54.319Z,100894.54
2019-04-23T08:43:08.972Z,100887.89
2019-04-23T08:45:44.475Z,100894.08
2019-04-23T08:50:49.771Z,100889.13
2019-04-23T08:55:58.331Z,100880.74
2019-04-23T08:58:32.044Z,100887.03
2019-04-23T09:03:56.373Z,100883.56
2019-04-23T09:09:04.368Z,100877.89
2019-04-23T09:11:35.160Z,100867.81
2019-04-23T09:19:11.118Z,100869.24
2019-04-23T09:21:59.242Z,100859.50
2019-04-23T09:24:09.578Z,100860.00
2019-04-23T09:26:41.470Z,100868.80
2019-04-23T09:29:24.989Z,100857.86
2019-04-23T09:32:22.290Z,100848.09
2019-04-23T09:34:58.667Z,100843.53
2019-04-23T09:40:55.614Z,100844.17
2019-04-23T09:43:12.095Z,100855.56
2019-04-23T09:46:15.060Z,100845.73
2019-04-23T09:48:44.217Z,100858.55
2019-04-23T09:51:20.975Z,100845.02
2019-04-23T09:54:00.618Z,100841.45
2019-04-23T09:56:27.239Z,100850.52
2019-04-23T09:59:01.147Z,100846.47
2019-04-23T10:03:50.537Z,100831.91
2019-04-23T10:06:20.290Z,100820.42
2019-04-23T10:08:50.052Z,100846.57
2019-04-23T10:11:19.957Z,100827.47
2019-04-23T10:13:52.774Z,100821.84
2019-04-23T10:16:27.710Z,100816.87
2019-04-23T10:19:00.675Z,100823.02
2019-04-23T10:21:33.394Z,100809.03
2019-04-23T10:24:05.548Z,100810.58
2019-04-23T10:26:37.917Z,100813.45
2019-04-23T10:29:14.185Z,100809.51
2019-04-23T10:31:46.154Z,100807.95
2019-04-23T10:34:18.970Z,100804.54
2019-04-23T10:36:51.517Z,100791.92
2019-04-23T10:39:29.509Z,100797.58
2019-04-23T10:42:00.862Z,100779.22
2019-04-23T10:44:50.814Z,100784.52
2019-04-23T10:48:15.524Z,100786.63
2019-04-23T10:50:46.208Z,100778.48
2019-04-23T10:55:56.339Z,100776.91
2019-04-23T10:58:31.469Z,100789.19
2019-04-23T11:06:17.752Z,100776.50
2019-04-23T11:08:52.840Z,100767.62
2019-04-23T11:13:52.842Z,100775.05
2019-04-23T11:16:45.815Z,100760.11
2019-04-23T11:19:10.791Z,100769.91
2019-04-23T11:21:34.138Z,100773.78
2019-04-23T11:24:11.371Z,100775.66
2019-04-23T11:29:19.267Z,100749.95
2019-04-23T11:31:52.298Z,100749.37
2019-04-23T11:38:02.677Z,100742.23
2019-04-23T11:39:32.762Z,100745.23
2019-04-23T11:42:14.505Z,100739.52
2019-04-23T11:44:41.511Z,100742.41
2019-04-23T11:47:32.597Z,100750.48
2019-04-23T11:49:53.307Z,100741.20
2019-04-23T11:52:42.784Z,100748.31
2019-04-23T12:00:09.991Z,100725.98
2019-04-23T12:02:54.317Z,100731.53
2019-04-23T12:08:51.078Z,100728.69
2019-04-23T12:11:52.921Z,100718.35
2019-04-23T12:14:37.152Z,100711.88
2019-04-23T12:17:07.906Z,100705.13
2019-04-23T12:27:13.761Z,100697.74
2019-04-23T12:32:44.696Z,100701.34
2019-04-23T12:35:12.932Z,100722.40
2019-04-23T12:40:32.431Z,100710.22
2019-04-23T12:45:35.547Z,100708.01
2019-04-23T12:48:26.248Z,100711.49
2019-04-23T12:50:48.829Z,100710.70
2019-04-23T13:00:51.549Z,100701.53
2019-04-23T13:05:59.193Z,100704.66
2019-04-23T13:08:44.271Z,100704.83
2019-04-23T13:11:15.229Z,100703.45
2019-04-23T13:16:25.478Z,100702.41
2019-04-23T13:24:15.712Z,100692.52
2019-04-23T13:26:51.867Z,100690.67
2019-04-23T13:29:27.970Z,100689.69
2019-04-23T13:32:00.839Z,100682.62
2019-04-23T13:34:40.979Z,100672.52
2019-04-23T13:37:11.193Z,100669.28
2019-04-23T13:39:39.839Z,100663.80
2019-04-23T13:42:22.860Z,100674.95
2019-04-23T13:44:51.878Z,100677.79
2019-04-23T13:47:28.177Z,100670.02
2019-04-23T13:50:01.381Z,100672.11
2019-04-23T13:53:02.664Z,100672.64
2019-04-23T13:55:09.094Z,100676.44
2019-04-23T13:57:59.332Z,100673.91
2019-04-23T14:00:09.545Z,100672.67
2019-04-23T14:02:43.900Z,100661.70
2019-04-23T14:05:35.605Z,100648.40
2019-04-23T14:08:13.264Z,100644.14
2019-04-23T14:10:40.137Z,100656.63
2019-04-23T14:20:55.488Z,100643.99
2019-04-23T14:26:21.997Z,100634.23
2019-04-23T14:28:41.772Z,100629.84
2019-04-23T14:31:10.537Z,100632.15
2019-04-23T14:33:58.471Z,100625.87
2019-04-23T14:36:27.780Z,100637.80
2019-04-23T14:38:57.434Z,100644.41
2019-04-23T14:41:44.448Z,100646.97
2019-04-23T14:44:10.388Z,100644.17
2019-04-23T14:49:22.074Z,100646.33
2019-04-23T14:57:09.923Z,100644.13
2019-04-23T14:59:29.031Z,100645.73
2019-04-23T15:02:12.519Z,100633.84
2019-04-23T15:07:22.924Z,100622.07
2019-04-23T15:09:57.638Z,100632.44
2019-04-23T15:15:06.227Z,100625.39
2019-04-23T15:17:34.666Z,100628.07
2019-04-23T15:20:22.974Z,100627.36
2019-04-23T15:27:15.902Z,100618.04
2019-04-23T15:30:57.527Z,100626.39
2019-04-23T15:33:35.044Z,100616.69
2019-04-23T15:36:12.910Z,100624.88
2019-04-23T15:39:12.305Z,100614.83
2019-04-23T15:41:07.431Z,100620.20
2019-04-23T15:43:39.295Z,100618.73
2019-04-23T15:46:21.569Z,100624.63
2019-04-23T15:48:53.989Z,100622.03
2019-04-23T15:51:30.939Z,100608.75
2019-04-23T15:53:56.404Z,100615.00
2019-04-23T15:56:38.474Z,100622.72
2019-04-23T15:59:14.081Z,100610.01
2019-04-23T16:01:35.118Z,100602.37
2019-04-23T16:03:43.439Z,100612.28
2019-04-23T16:06:20.987Z,100602.06
2019-04-23T16:14:41.150Z,100622.36
2019-04-23T16:17:04.888Z,100607.38
2019-04-23T16:19:45.916Z,100612.13
2019-04-23T16:22:10.776Z,100605.66
2019-04-23T16:24:59.856Z,100607.45
2019-04-23T16:27:21.571Z,100618.07
2019-04-23T16:32:57.770Z,100609.20
2019-04-23T16:38:10.290Z,100617.42
2019-04-23T16:40:36.283Z,100622.39
2019-04-23T16:43:10.149Z,100616.27
2019-04-23T16:45:40.985Z,100622.94
2019-04-23T16:48:23.864Z,100626.69
2019-04-23T16:51:06.705Z,100636.39
2019-04-23T16:53:21.525Z,100639.80
2019-04-23T16:55:55.056Z,100635.72
2019-04-23T16:58:34.614Z,100636.42
2019-04-23T17:06:10.100Z,100632.48
2019-04-23T17:08:52.139Z,100634.88
2019-04-23T17:11:19.092Z,100620.91
2019-04-23T17:14:09.183Z,100629.08
2019-04-23T17:16:28.620Z,100622.95
2019-04-23T17:19:01.871Z,100615.62
2019-04-23T17:21:32.517Z,100615.27
2019-04-23T17:24:16.860Z,100617.30
2019-04-23T17:26:37.368Z,100618.17
2019-04-23T17:29:16.127Z,100613.23
2019-04-23T17:32:00.570Z,100613.57
2019-04-23T17:34:32.557Z,100612.05
2019-04-23T17:37:17.869Z,100608.12
2019-04-23T17:40:06.741Z,100620.56
2019-04-23T17:42:45.528Z,100616.13
2019-04-23T17:45:30.875Z,100604.89
2019-04-23T17:48:21.981Z,100616.47
2019-04-23T17:53:25.359Z,100619.70
2019-04-23T17:58:35.412Z,100621.39
2019-04-23T18:09:05.966Z,100621.49
2019-04-23T18:11:30.020Z,100620.97
2019-04-23T18:14:03.829Z,100623.31
2019-04-23T18:22:07.399Z,100630.94
2019-04-23T18:24:57.897Z,100627.31
2019-04-23T18:27:33.442Z,100630.37
2019-04-23T18:33:33.813Z,100636.84
2019-04-23T18:35:33.022Z,100636.48
2019-04-23T18:40:59.244Z,100629.67
2019-04-23T18:53:49.388Z,100635.56
2019-04-23T19:07:32.218Z,100639.77
2019-04-23T19:10:29.205Z,100638.26
2019-04-23T19:13:07.318Z,100645.43
2019-04-23T19:17:50.168Z,100640.28
2019-04-23T19:20:49.749Z,100642.02
2019-04-23T19:23:09.518Z,100638.95
2019-04-23T19:25:49.870Z,100641.67
2019-04-23T19:28:30.755Z,100643.03
2019-04-23T19:33:35.314Z,100642.48
2019-04-23T19:38:36.424Z,100637.73
2019-04-23T19:41:10.827Z,100640.31
2019-04-23T19:43:54.399Z,100636.23
2019-04-23T19:48:57.887Z,100634.88
2019-04-23T19:54:11.017Z,100629.44
2019-04-23T19:56:37.719Z,100624.80
2019-04-23T19:59:01.925Z,100629.26
2019-04-23T20:01:49.810Z,100629.41
2019-04-23T20:04:15.070Z,100623.63
2019-04-23T20:17:23.284Z,100617.78
2019-04-23T20:25:04.172Z,100608.77
2019-04-23T20:35:35.600Z,100591.20
2019-04-23T20:40:50.847Z,100594.97
2019-04-23T20:43:18.963Z,100595.11
2019-04-23T20:45:56.642Z,100593.09
2019-04-23T20:48:30.848Z,100592.55
2019-04-23T20:50:56.242Z,100590.66
2019-04-23T20:53:31.347Z,100597.42
2019-04-23T20:56:07.386Z,100595.26
2019-04-23T20:58:54.921Z,100592.89
2019-04-23T21:01:33.839Z,100595.11
2019-04-23T21:04:02.151Z,100591.19
2019-04-23T21:06:37.456Z,100593.91
2019-04-23T21:11:53.111Z,100596.56
2019-04-23T21:14:33.580Z,100597.05
2019-04-23T21:16:48.695Z,100599.22
2019-04-23T21:19:30.740Z,100593.27
2019-04-23T21:22:13.940Z,100593.05
2019-04-23T21:24:46.248Z,100592.70
2019-04-23T21:27:38.536Z,100592.88
2019-04-23T21:32:45.303Z,100589.92
2019-04-23T21:35:16.838Z,100595.63
2019-04-23T21:38:05.012Z,100592.39
2019-04-23T21:43:20.734Z,100591.00
2019-04-23T21:46:02.483Z,100589.30
2019-04-23T21:48:28.640Z,100591.59
2019-04-23T21:51:28.620Z,100594.05
2019-04-23T21:53:33.397Z,100600.31
2019-04-23T21:56:08.507Z,100593.52
2019-04-23T22:01:36.959Z,100590.45
2019-04-23T22:09:10.333Z,100588.78
2019-04-23T22:16:53.919Z,100584.98
2019-04-23T22:21:52.570Z,100582.13
2019-04-23T22:24:21.216Z,100581.30
2019-04-23T22:26:54.913Z,100583.14
2019-04-23T22:31:53.786Z,100585.68
2019-04-23T22:34:46.915Z,100592.30
2019-04-23T22:39:54.169Z,100587.48
2019-04-23T22:42:45.154Z,100583.45
2019-04-23T22:45:38.091Z,100587.17
2019-04-23T22:47:33.668Z,100583.72
2019-04-23T22:52:43.691Z,100577.27
2019-04-23T22:55:23.402Z,100574.73
2019-04-23T22:58:01.883Z,100575.44
2019-04-23T23:03:11.586Z,100575.92
2019-04-23T23:06:03.111Z,100572.84
2019-04-23T23:08:23.992Z,100577.37
2019-04-23T23:11:02.558Z,100573.81
2019-04-23T23:13:46.550Z,100567.52
2019-04-23T23:18:39.067Z,100565.28
2019-04-23T23:21:13.414Z,100568.81
2019-04-23T23:23:49.776Z,100568.66
2019-04-23T23:26:22.062Z,100574.73
2019-04-23T23:28:59.435Z,100572.06
2019-04-23T23:31:29.935Z,100565.42
2019-04-23T23:34:02.362Z,100569.13
2019-04-23T23:36:38.771Z,100558.80
2019-04-23T23:44:35.129Z,100559.99
2019-04-23T23:46:56.291Z,100559.16
2019-04-23T23:49:27.811Z,100551.67
2019-04-23T23:51:57.709Z,100556.82
2019-04-23T23:54:31.106Z,100548.16
2019-04-23T23:57:13.897Z,100547.67
